Flight Briefing for CMB846

Departure Arrival
Bahrain International Airport (OBBI)
Click to view FAA NOTAMS
NAS Sigonella (LICZ)
Click to view FAA NOTAMS
Departure Time Arrival Time
N/A N/A
Aircraft Distance
B757-200SF 1929nm
Departure METAR Arrival METAR
OBBI 190800Z 30012KT 270V330 CAVOK 22/10 Q1019 NOSIG LICZ 190755Z 26003KT CAVOK 13/09 Q1015 RMK SKC VIS MIN 9999 WIND THR28 26003KT WIND THR10 26004KT A3000 BLU
Suggested Route
NARMI N697 KITOT SISIK UN697 MENLI L677 CVO A1 NOZ A1 METRU P868 ARLOS T340 EVLIB M871 ERNAM ERNAM2J


View recent IFR Routes data
Notes
USTRANSCOM CONTRACT FLIGHT

Charts and Procedures

Charts for OBBI
No chart available
Charts for LICZ
No chart available

Windy.com Weather Map